createdAt,value
2022-08-02T00:02:19.639Z,10.20
2022-08-02T00:05:40.447Z,11.10
2022-08-02T00:09:01.481Z,6.45
2022-08-02T00:12:23.452Z,9.18
2022-08-02T00:15:44.397Z,9.98
2022-08-02T00:19:05.437Z,8.45
2022-08-02T00:22:26.418Z,5.50
2022-08-02T00:25:55.352Z,7.57
2022-08-02T00:29:16.437Z,4.75
2022-08-02T00:32:37.467Z,8.45
2022-08-02T00:35:58.472Z,7.82
2022-08-02T00:39:35.340Z,6.25
2022-08-02T00:42:56.423Z,4.97
2022-08-02T00:46:17.454Z,9.48
2022-08-02T00:49:38.537Z,9.90
2022-08-02T00:52:59.424Z,10.80
2022-08-02T00:56:20.424Z,9.55
2022-08-02T00:59:41.408Z,10.60
2022-08-02T01:02:55.413Z,8.05
2022-08-02T01:06:16.509Z,8.48
2022-08-02T01:09:37.463Z,12.85
2022-08-02T01:12:58.443Z,11.35
2022-08-02T01:16:27.431Z,11.88
2022-08-02T01:19:56.474Z,10.85
2022-08-02T01:23:53.433Z,12.60
2022-08-02T01:27:39.463Z,12.85
2022-08-02T01:31:04.462Z,6.78
2022-08-02T01:34:41.487Z,5.25
2022-08-02T01:38:12.452Z,4.60
2022-08-02T01:41:36.492Z,11.55
2022-08-02T01:44:59.469Z,6.10
2022-08-02T01:48:22.430Z,9.55
2022-08-02T01:52:03.467Z,8.45
2022-08-02T01:55:35.358Z,9.93
2022-08-02T01:59:09.446Z,6.97
2022-08-02T02:02:32.468Z,9.95
2022-08-02T02:05:54.490Z,7.65
2022-08-02T02:09:16.475Z,7.68
2022-08-02T02:12:38.472Z,10.82
2022-08-02T02:16:20.458Z,9.23
2022-08-02T02:19:42.452Z,8.32
2022-08-02T02:23:04.103Z,8.48
2022-08-02T02:26:31.200Z,6.50
2022-08-02T02:29:57.506Z,7.95
2022-08-02T02:33:22.671Z,11.35
2022-08-02T02:36:48.503Z,9.60
2022-08-02T02:40:10.449Z,8.75
2022-08-02T02:43:32.460Z,6.22
2022-08-02T02:46:54.459Z,11.60
2022-08-02T02:50:16.573Z,11.52
2022-08-02T02:54:33.739Z,6.10
2022-08-02T02:57:20.557Z,11.20
2022-08-02T03:01:00.543Z,6.10
2022-08-02T03:04:24.475Z,6.45
2022-08-02T03:07:47.491Z,10.43
2022-08-02T03:11:10.476Z,8.43
2022-08-02T03:14:31.474Z,9.70
2022-08-02T03:17:57.481Z,7.32
2022-08-02T03:21:20.512Z,8.43
2022-08-02T03:24:41.495Z,7.07
2022-08-02T03:28:02.555Z,14.77
2022-08-02T03:31:23.476Z,10.05
2022-08-02T03:34:44.499Z,7.78
2022-08-02T03:38:09.466Z,12.15
2022-08-02T03:41:32.509Z,8.05
2022-08-02T03:44:53.467Z,10.35
2022-08-02T03:48:30.534Z,8.57
2022-08-02T03:51:55.499Z,12.40
2022-08-02T03:55:16.495Z,8.10
2022-08-02T03:58:38.542Z,13.98
2022-08-02T04:01:59.487Z,5.93
2022-08-02T04:05:24.547Z,5.82
2022-08-02T04:08:46.506Z,8.85
2022-08-02T04:12:07.712Z,14.90
2022-08-02T04:15:29.492Z,10.60
2022-08-02T04:18:56.462Z,9.00
2022-08-02T04:22:19.511Z,12.25
2022-08-02T04:25:41.581Z,8.38
2022-08-02T04:29:04.556Z,11.63
2022-08-02T04:32:25.508Z,10.82
2022-08-02T04:35:46.539Z,5.90
2022-08-02T04:39:07.534Z,11.23
2022-08-02T04:42:36.493Z,8.25
2022-08-02T04:45:58.540Z,7.50
2022-08-02T04:49:20.554Z,13.02
2022-08-02T04:52:45.677Z,18.20
2022-08-02T04:56:06.538Z,8.65
2022-08-02T04:59:27.548Z,13.35
2022-08-02T05:02:48.490Z,10.85
2022-08-02T05:06:19.462Z,16.00
2022-08-02T05:09:40.571Z,16.85
2022-08-02T05:13:01.593Z,14.05
2022-08-02T05:16:22.512Z,13.48
2022-08-02T05:19:52.518Z,30.15
2022-08-02T05:23:13.513Z,14.82
2022-08-02T05:26:34.522Z,12.02
2022-08-02T05:29:57.104Z,13.15
2022-08-02T05:33:17.588Z,9.85
2022-08-02T05:36:38.493Z,14.30
2022-08-02T05:40:03.547Z,17.67
2022-08-02T05:43:28.508Z,13.68
2022-08-02T05:46:49.515Z,8.98
2022-08-02T05:50:10.532Z,13.65
2022-08-02T05:54:18.501Z,5.50
2022-08-02T05:58:04.579Z,9.50
2022-08-02T06:01:27.535Z,10.90
2022-08-02T06:05:12.602Z,10.50
2022-08-02T06:08:36.549Z,9.50
2022-08-02T06:12:02.250Z,14.57
2022-08-02T06:15:27.522Z,9.48
2022-08-02T06:18:49.540Z,13.30
2022-08-02T06:22:36.111Z,7.82
2022-08-02T06:26:00.619Z,18.03
2022-08-02T06:29:23.280Z,9.88
2022-08-02T06:32:45.627Z,11.70
2022-08-02T06:36:24.558Z,13.13
2022-08-02T06:39:49.530Z,16.95
2022-08-02T06:43:26.556Z,7.85
2022-08-02T06:47:12.011Z,9.35
2022-08-02T06:50:29.604Z,14.52
2022-08-02T06:53:51.546Z,10.85
2022-08-02T06:57:12.606Z,8.35
2022-08-02T07:00:33.545Z,8.85
2022-08-02T07:03:54.539Z,7.25
2022-08-02T07:07:17.577Z,9.13
2022-08-02T07:10:38.554Z,12.27
2022-08-02T07:13:59.539Z,18.15
2022-08-02T07:17:20.541Z,9.77
2022-08-02T07:20:41.558Z,15.00
2022-08-02T07:24:02.555Z,4.40
2022-08-02T07:27:23.543Z,7.95
2022-08-02T07:30:39.599Z,13.93
2022-08-02T07:34:00.558Z,11.23
2022-08-02T07:37:22.359Z,6.78
2022-08-02T07:40:57.569Z,11.90
2022-08-02T07:44:18.558Z,6.82
2022-08-02T07:47:39.563Z,11.07
2022-08-02T07:51:00.601Z,6.65
2022-08-02T07:54:21.580Z,6.15
2022-08-02T07:57:46.211Z,3.47
2022-08-02T08:01:07.644Z,6.70
2022-08-02T08:04:24.748Z,7.63
2022-08-02T08:07:38.603Z,3.92
2022-08-02T08:11:00.556Z,8.25
2022-08-02T08:14:21.630Z,5.78
2022-08-02T08:17:42.577Z,4.93
2022-08-02T08:21:04.197Z,3.88
2022-08-02T08:24:25.594Z,5.70
2022-08-02T08:27:46.656Z,4.03
2022-08-02T08:31:07.567Z,5.93
2022-08-02T08:34:30.602Z,3.05
2022-08-02T08:37:52.608Z,4.35
2022-08-02T08:41:13.585Z,3.60
2022-08-02T08:44:34.566Z,7.03
2022-08-02T08:47:56.618Z,3.22
2022-08-02T08:51:51.550Z,5.85
2022-08-02T08:55:13.634Z,5.25
2022-08-02T08:58:34.581Z,3.92
2022-08-02T09:01:58.695Z,7.05
2022-08-02T09:05:37.599Z,2.95
2022-08-02T09:08:58.590Z,3.08
2022-08-02T09:12:33.620Z,2.13
2022-08-02T09:15:56.639Z,4.05
2022-08-02T09:19:36.630Z,2.50
2022-08-02T09:22:57.639Z,4.40
2022-08-02T09:26:21.590Z,2.63
2022-08-02T09:30:05.251Z,4.70
2022-08-02T09:33:23.629Z,3.10
2022-08-02T09:36:54.928Z,3.15
2022-08-02T09:40:17.600Z,3.03
2022-08-02T09:44:05.451Z,4.38
2022-08-02T09:47:30.935Z,4.25
2022-08-02T09:50:52.599Z,3.13
2022-08-02T09:54:16.604Z,3.88
2022-08-02T09:57:40.747Z,7.47
2022-08-02T10:01:11.680Z,6.85
2022-08-02T10:04:52.543Z,3.90
2022-08-02T10:08:46.677Z,5.18
2022-08-02T10:12:07.644Z,10.63
2022-08-02T10:15:29.650Z,2.92
2022-08-02T10:18:50.626Z,3.30
2022-08-02T10:22:30.633Z,5.95
2022-08-02T10:25:52.602Z,3.55
2022-08-02T10:29:13.589Z,5.18
2022-08-02T10:32:42.659Z,4.18
2022-08-02T10:36:07.985Z,9.90
2022-08-02T10:39:28.685Z,6.85
2022-08-02T10:43:01.698Z,7.32
2022-08-02T10:46:47.649Z,5.10
2022-08-02T10:50:10.705Z,2.40
2022-08-02T10:53:44.633Z,3.53
2022-08-02T10:57:07.662Z,5.95
2022-08-02T11:00:37.669Z,4.70
2022-08-02T11:03:58.641Z,5.28
2022-08-02T11:07:27.624Z,5.15
2022-08-02T11:10:44.659Z,6.55
2022-08-02T11:14:20.610Z,4.95
2022-08-02T11:17:41.637Z,6.95
2022-08-02T11:21:35.632Z,4.38
2022-08-02T11:24:56.707Z,3.78
2022-08-02T11:28:25.429Z,5.28
2022-08-02T11:31:54.696Z,4.38
2022-08-02T11:35:16.619Z,8.68
2022-08-02T11:38:37.705Z,7.63
2022-08-02T11:42:12.840Z,5.00
2022-08-02T11:45:39.645Z,3.38
2022-08-02T11:49:00.710Z,4.20
2022-08-02T11:52:22.657Z,6.28
2022-08-02T11:56:03.782Z,4.13
2022-08-02T11:59:18.665Z,2.33
2022-08-02T12:02:44.855Z,2.65
2022-08-02T12:06:10.964Z,2.38
2022-08-02T12:09:41.354Z,5.30
2022-08-02T12:13:11.654Z,2.90
2022-08-02T12:16:50.660Z,8.02
2022-08-02T12:20:11.645Z,7.28
2022-08-02T12:23:32.663Z,5.43
2022-08-02T12:27:00.649Z,2.97
2022-08-02T12:30:27.511Z,3.25
2022-08-02T12:34:00.700Z,2.40
2022-08-02T12:37:23.652Z,2.55
2022-08-02T12:40:39.696Z,3.97
2022-08-02T12:44:00.748Z,2.65
2022-08-02T12:47:22.683Z,10.20
2022-08-02T12:50:46.679Z,6.60
2022-08-02T12:54:08.685Z,5.63
2022-08-02T12:57:31.726Z,3.28
2022-08-02T13:00:52.664Z,4.82
2022-08-02T13:04:16.351Z,4.00
2022-08-02T13:07:37.742Z,4.10
2022-08-02T13:10:58.642Z,3.42
2022-08-02T13:14:19.721Z,18.65
2022-08-02T13:17:40.672Z,4.82
2022-08-02T13:21:01.720Z,7.97
2022-08-02T13:24:41.310Z,3.30
2022-08-02T13:28:04.734Z,5.55
2022-08-02T13:31:36.280Z,11.65
2022-08-02T13:34:57.662Z,12.00
2022-08-02T13:38:21.925Z,3.85
2022-08-02T13:41:45.677Z,8.02
2022-08-02T13:45:12.867Z,2.70
2022-08-02T13:48:34.690Z,3.97
2022-08-02T13:51:55.698Z,4.93
2022-08-02T13:55:16.762Z,4.80
2022-08-02T13:58:37.711Z,5.82
2022-08-02T14:01:58.968Z,3.88
2022-08-02T14:05:19.753Z,2.90
2022-08-02T14:09:00.765Z,2.83
2022-08-02T14:12:56.456Z,7.53
2022-08-02T14:16:17.688Z,4.65
2022-08-02T14:19:38.706Z,5.72
2022-08-02T14:23:00.662Z,5.47
2022-08-02T14:26:26.775Z,5.82
2022-08-02T14:29:48.715Z,10.65
2022-08-02T14:33:10.687Z,5.22
2022-08-02T14:36:31.701Z,3.67
2022-08-02T14:40:00.783Z,2.83
2022-08-02T14:43:41.672Z,4.50
2022-08-02T14:47:02.801Z,7.50
2022-08-02T14:50:24.677Z,3.28
2022-08-02T14:53:49.683Z,2.92
2022-08-02T14:57:23.752Z,5.32
2022-08-02T15:00:44.698Z,4.40
2022-08-02T15:04:05.716Z,5.82
2022-08-02T15:07:26.733Z,5.15
2022-08-02T15:10:47.740Z,3.83
2022-08-02T15:14:08.766Z,8.45
2022-08-02T15:17:29.735Z,8.90
2022-08-02T15:21:18.954Z,3.60
2022-08-02T15:24:46.737Z,6.60
2022-08-02T15:28:07.720Z,10.40
2022-08-02T15:31:33.630Z,4.72
2022-08-02T15:34:54.733Z,6.03
2022-08-02T15:38:15.722Z,11.10
2022-08-02T15:41:38.747Z,4.55
2022-08-02T15:44:59.731Z,8.20
2022-08-02T15:48:20.800Z,4.35
2022-08-02T15:51:41.697Z,5.70
2022-08-02T15:55:07.214Z,4.88
2022-08-02T16:01:49.785Z,4.70
2022-08-02T16:05:13.957Z,3.95
2022-08-02T16:08:34.724Z,3.72
2022-08-02T16:11:55.760Z,8.13
2022-08-02T16:15:17.725Z,6.35
2022-08-02T16:18:38.739Z,4.38
2022-08-02T16:21:59.731Z,13.25
2022-08-02T16:25:20.722Z,3.92
2022-08-02T16:28:41.728Z,4.40
2022-08-02T16:32:02.731Z,6.80
2022-08-02T16:35:23.744Z,3.65
2022-08-02T16:38:44.784Z,7.93
2022-08-02T16:42:05.773Z,5.57
2022-08-02T16:45:26.713Z,6.90
2022-08-02T16:48:51.078Z,7.30
2022-08-02T16:52:11.713Z,5.95
2022-08-02T16:55:32.739Z,5.80
2022-08-02T16:58:53.719Z,5.50
2022-08-02T17:02:18.398Z,10.50
2022-08-02T17:05:56.158Z,5.95
2022-08-02T17:10:02.550Z,6.95
2022-08-02T17:13:11.528Z,5.63
2022-08-02T17:16:37.840Z,7.15
2022-08-02T17:20:00.803Z,7.30
2022-08-02T17:24:06.283Z,17.98
2022-08-02T17:27:08.902Z,11.20
2022-08-02T17:30:34.395Z,5.95
2022-08-02T17:33:54.832Z,8.32
2022-08-02T17:37:15.776Z,5.22
2022-08-02T17:40:38.758Z,7.85
2022-08-02T17:43:59.777Z,9.85
2022-08-02T17:47:22.766Z,11.73
2022-08-02T17:50:52.823Z,13.80
2022-08-02T17:54:13.772Z,7.88
2022-08-02T18:01:24.149Z,15.85
2022-08-02T18:04:44.758Z,10.88
2022-08-02T18:08:06.745Z,47.15
2022-08-02T18:11:52.512Z,10.23
2022-08-02T18:15:14.604Z,13.43
2022-08-02T18:18:35.735Z,11.27
2022-08-02T18:21:57.801Z,20.65
2022-08-02T18:25:37.252Z,47.88
2022-08-02T18:28:59.759Z,18.88
2022-08-02T18:33:58.840Z,20.23
2022-08-02T18:36:01.748Z,24.55
2022-08-02T18:39:22.859Z,17.30
2022-08-02T18:42:43.783Z,21.27
2022-08-02T18:46:16.252Z,18.10
2022-08-02T18:49:46.553Z,18.80
2022-08-02T18:53:08.794Z,26.02
2022-08-02T18:56:29.777Z,23.33
2022-08-02T18:59:55.783Z,18.48
2022-08-02T19:03:19.157Z,19.08
2022-08-02T19:06:39.814Z,21.70
2022-08-02T19:10:02.753Z,28.48
2022-08-02T19:13:25.775Z,22.25
2022-08-02T19:16:46.777Z,22.92
2022-08-02T19:20:08.805Z,24.67
2022-08-02T19:23:30.814Z,17.35
2022-08-02T19:27:04.759Z,13.95
2022-08-02T19:30:34.817Z,22.02
2022-08-02T19:34:07.274Z,14.00
2022-08-02T19:37:37.040Z,21.75
2022-08-02T19:40:59.799Z,16.73
2022-08-02T19:44:29.288Z,19.83
2022-08-02T19:47:54.316Z,21.70
2022-08-02T19:51:15.816Z,15.35
2022-08-02T19:54:59.669Z,19.25
2022-08-02T19:58:38.819Z,13.77
2022-08-02T20:02:05.799Z,25.67
2022-08-02T20:05:27.284Z,18.38
2022-08-02T20:08:52.831Z,19.05
2022-08-02T20:12:14.133Z,17.73
2022-08-02T20:15:56.235Z,20.73
2022-08-02T20:19:21.764Z,13.95
2022-08-02T20:23:32.150Z,23.23
2022-08-02T20:26:47.988Z,14.07
2022-08-02T20:30:09.822Z,16.65
2022-08-02T20:33:32.798Z,22.27
2022-08-02T20:36:54.113Z,25.67
2022-08-02T20:43:48.862Z,23.02
2022-08-02T20:47:09.850Z,17.10
2022-08-02T20:50:49.345Z,13.60
2022-08-02T20:54:11.818Z,18.60
2022-08-02T20:57:48.934Z,19.17
2022-08-02T21:01:13.881Z,13.38
2022-08-02T21:04:34.804Z,19.58
2022-08-02T21:07:56.865Z,22.42
2022-08-02T21:11:18.835Z,15.88
2022-08-02T21:14:39.832Z,24.65
2022-08-02T21:18:06.864Z,18.33
2022-08-02T21:21:26.848Z,16.90
2022-08-02T21:24:48.862Z,17.90
2022-08-02T21:28:17.419Z,14.30
2022-08-02T21:31:38.894Z,20.92
2022-08-02T21:35:02.851Z,15.85
2022-08-02T21:38:35.554Z,19.83
2022-08-02T21:41:57.904Z,16.58
2022-08-02T21:45:19.986Z,12.27
2022-08-02T21:48:40.843Z,14.45
2022-08-02T21:52:02.803Z,16.17
2022-08-02T21:55:24.358Z,15.50
2022-08-02T21:59:14.841Z,16.98
2022-08-02T22:02:36.841Z,9.82
2022-08-02T22:05:58.831Z,18.38
2022-08-02T22:09:42.293Z,10.27
2022-08-02T22:13:00.808Z,11.32
2022-08-02T22:16:21.823Z,18.42
2022-08-02T22:19:53.816Z,18.90
2022-08-02T22:26:56.865Z,9.68
2022-08-02T22:30:17.868Z,11.55
2022-08-02T22:34:01.284Z,12.05
2022-08-02T22:38:17.506Z,10.70
2022-08-02T22:41:04.885Z,14.52
2022-08-02T22:44:29.828Z,16.70
2022-08-02T22:47:51.410Z,15.77
2022-08-02T22:51:13.884Z,12.38
2022-08-02T22:54:34.836Z,12.98
2022-08-02T22:57:57.173Z,15.90
2022-08-02T22:58:41.285Z,11.93
2022-08-02T22:58:55.965Z,17.40
2022-08-02T22:59:10.715Z,11.30
2022-08-02T23:01:17.921Z,23.13
2022-08-02T23:04:38.905Z,11.75
2022-08-02T23:07:59.874Z,16.77
2022-08-02T23:11:20.875Z,13.95
2022-08-02T23:14:41.867Z,23.25
2022-08-02T23:18:21.841Z,7.22
2022-08-02T23:22:01.801Z,11.18
2022-08-02T23:25:23.988Z,9.27
2022-08-02T23:28:37.860Z,10.98
2022-08-02T23:31:59.930Z,14.35
2022-08-02T23:35:22.951Z,14.23
2022-08-02T23:38:43.896Z,12.13
2022-08-02T23:42:04.902Z,8.57
2022-08-02T23:45:25.850Z,11.93
2022-08-02T23:48:55.883Z,17.92
2022-08-02T23:52:17.250Z,8.27
2022-08-02T23:55:37.858Z,14.52
2022-08-02T23:58:59.904Z,15.82
